• Join FlightAware (Why Join?)
  • Login
  • US Flag 
07:56PM EDT


 

Airport Tracker/Info


-or-


 

Live Flight TrackerFlight Track Log ✈ SWA3497 ✈ 02-May-2013 ✈ KMDW - KSDF

Flight Track Log - Related Links

Times and Time Zones

All times are in EDT time to prevent confusion due to time zone crossing. See the SWA3497 flight status page for this flight to view local times or setup timezone preferences in your user account.

Time Position Orientation Groundspeed Altitude Reporting Facility
EDT Latitude Longitude Course Direction KTS MPH feet Rate Location/Type
12:31PM 41.7667 -87.6833 180° South 223 257 3,400  Level Chicago TRACON
12:33PM 41.6317 -87.6911 182° South 269 310 9,800 3,180 Climbing Chicago Center
12:34PM 41.5547 -87.7039 187° South 277 319 13,600 3,480 Climbing Chicago Center
12:35PM 41.4761 -87.7167 187° South 280 322 17,100 2,580 Climbing Chicago Center
12:36PM 41.2542 -87.7167 180° South  Level FlightAware Approximate
12:36PM 41.3875 -87.7258 184° South 312 359 19,000  Level Chicago Center
12:37PM 41.2642 -87.7261 180° South 365 420 22,100 1,920 Climbing Chicago Center
12:38PM 41.1597 -87.7217 178° South 373 429 23,000 420 Climbing Chicago Center
12:39PM 41.0544 -87.7061 174° South 379 436 23,000  Level Chicago Center
12:40PM 40.9508 -87.6911 174° South 376 433 23,000  Level Chicago Center
12:41PM 40.8467 -87.6736 173° South 378 435 23,000  Level Chicago Center
12:42PM 40.7450 -87.6381 165° South 380 437 23,000  Level Chicago Center
12:43PM 40.6214 -87.5989 166° South 382 440 23,000  Level Chicago Center
12:44PM 40.5192 -87.5667 167° South 381 438 23,000  Level Chicago Center
12:45PM 40.4164 -87.5342 166° South 382 440 23,000  Level Chicago Center
12:46PM 40.3122 -87.5025 167° South 384 442 23,000  Level Chicago Center
12:48PM 40.2114 -87.4708 167° South 376 433 23,000  Level Chicago Center
12:48PM 40.1222 -87.4447 167° South 374 430 23,000  Level Indianapolis Center
12:49PM 40.0036 -87.4075 166° South 368 423 23,000  Level Indianapolis Center
12:51PM 39.9133 -87.3580 167° South  Level FlightAware Approximate
12:52PM 39.7844 -87.3408 167° South 375 432 23,000  Level Chicago Center
12:53PM 39.7017 -87.3147 166° South 375 432 23,000  Level Indianapolis Center
12:54PM 39.6025 -87.2822 166° South 371 427 23,000  Level Indianapolis Center
12:55PM 39.4842 -87.2378 164° South 375 432 23,000  Level Indianapolis Center
12:57PM 39.3331 -87.0553 137° Southeast 375 432 23,000  Level Indianapolis Center
12:58PM 39.2589 -86.9642 136° Southeast 372 428 23,000  Level Indianapolis Center
12:59PM 39.1844 -86.8736 137° Southeast 371 427 23,000 -540 Level Indianapolis Center
01:00PM 39.1028 -86.7722 136° Southeast 370 426 22,000 -1,440 Descending Indianapolis Center
01:01PM 39.0303 -86.6842 137° Southeast 360 414 20,100 -1,860 Descending Indianapolis Center
01:02PM 38.9611 -86.6017 137° Southeast 343 395 18,200 -1,920 Descending Indianapolis Center
01:03PM 38.8892 -86.5136 136° Southeast 341 392 16,200 -1,980 Descending Indianapolis Center
01:04PM 38.8244 -86.4356 137° Southeast 335 386 14,200 -2,220 Descending Indianapolis Center
01:05PM 38.7444 -86.3406 137° Southeast 329 379 11,700 -1,800 Descending Indianapolis Center
01:06PM 38.6650 -86.2917 154° Southeast 321 369 10,500 -1,140 Descending Indianapolis Center
01:07PM 38.5894 -86.2503 157° South 308 354 9,400 -1,320 Descending Indianapolis Center
01:08PM 38.5214 -86.2117 156° South 281 323 7,800 -1,200 Descending Indianapolis Center
01:09PM 38.4525 -86.1742 157° South 270 311 7,000 -780 Descending Indianapolis Center
01:10PM 38.3897 -86.1386 156° South 253 291 6,300 -540 Descending Indianapolis Center
01:11PM 38.3556 -86.0825 128° Southeast 245 282 6,000 -180 Descending Indianapolis Center
01:12PM 38.3889 -85.9928 65° Northeast 233 268 6,000  Level Indianapolis Center
01:13PM 38.4186 -85.9178 63° Northeast 236 272 6,000 -360 Level Indianapolis Center
01:14PM 38.4844 -85.9047 North 236 272 5,300 -900 Descending Indianapolis Center
01:15PM 38.4700 -85.8417 106° East 240 276 4,200 -780 Descending Indianapolis Center
01:16PM 38.4111 -85.8233 166° South 228 262 3,700 -600 Descending Indianapolis Center
01:17PM 38.3592 -85.8067 166° South 211 243 3,000 -360 Descending Indianapolis Center
01:18PM 38.3122 -85.7911 165° South 195 224 3,000 -300 Level Indianapolis Center
01:19PM 38.2583 -85.7722 165° South 188 216 2,500 -540 Descending Indianapolis Center
01:22PM 38.1741 -85.7365 159° South  Level Estimated
01:29PM 38.1741 -85.7365 28° Northeast  Level Estimated